sensor_id;sensor_type;location;lat;lon;timestamp;temperature;humidity
80743;SHT31;70142;50.894;6.052;2023-08-12T00:00:55;22.74;85.18
80743;SHT31;70142;50.894;6.052;2023-08-12T00:03:28;22.70;85.17
80743;SHT31;70142;50.894;6.052;2023-08-12T00:06:02;22.68;85.33
80743;SHT31;70142;50.894;6.052;2023-08-12T00:08:37;22.75;84.90
80743;SHT31;70142;50.894;6.052;2023-08-12T00:11:10;22.71;84.98
80743;SHT31;70142;50.894;6.052;2023-08-12T00:13:43;22.67;85.19
80743;SHT31;70142;50.894;6.052;2023-08-12T00:16:18;22.68;84.96
80743;SHT31;70142;50.894;6.052;2023-08-12T00:18:51;22.71;85.02
80743;SHT31;70142;50.894;6.052;2023-08-12T00:21:25;22.77;84.79
80743;SHT31;70142;50.894;6.052;2023-08-12T00:23:58;22.84;84.40
80743;SHT31;70142;50.894;6.052;2023-08-12T00:26:32;22.77;84.64
80743;SHT31;70142;50.894;6.052;2023-08-12T00:29:07;22.90;84.09
80743;SHT31;70142;50.894;6.052;2023-08-12T00:31:42;22.86;84.26
80743;SHT31;70142;50.894;6.052;2023-08-12T00:34:16;22.87;84.53
80743;SHT31;70142;50.894;6.052;2023-08-12T00:36:49;22.74;85.24
80743;SHT31;70142;50.894;6.052;2023-08-12T00:39:23;22.84;84.77
80743;SHT31;70142;50.894;6.052;2023-08-12T00:41:56;22.72;85.12
80743;SHT31;70142;50.894;6.052;2023-08-12T00:44:29;22.84;84.37
80743;SHT31;70142;50.894;6.052;2023-08-12T00:47:05;22.80;84.58
80743;SHT31;70142;50.894;6.052;2023-08-12T00:49:40;22.75;84.82
80743;SHT31;70142;50.894;6.052;2023-08-12T00:52:17;22.74;84.46
80743;SHT31;70142;50.894;6.052;2023-08-12T00:54:51;22.81;84.91
80743;SHT31;70142;50.894;6.052;2023-08-12T00:57:25;22.78;84.71
80743;SHT31;70142;50.894;6.052;2023-08-12T00:59:59;22.84;84.65
80743;SHT31;70142;50.894;6.052;2023-08-12T01:02:34;22.87;84.91
80743;SHT31;70142;50.894;6.052;2023-08-12T01:05:08;22.78;84.87
80743;SHT31;70142;50.894;6.052;2023-08-12T01:07:42;22.83;84.67
80743;SHT31;70142;50.894;6.052;2023-08-12T01:10:17;22.90;84.24
80743;SHT31;70142;50.894;6.052;2023-08-12T01:12:56;22.86;84.68
80743;SHT31;70142;50.894;6.052;2023-08-12T01:15:33;22.87;84.41
80743;SHT31;70142;50.894;6.052;2023-08-12T01:18:10;22.83;84.82
80743;SHT31;70142;50.894;6.052;2023-08-12T01:20:44;22.88;84.46
80743;SHT31;70142;50.894;6.052;2023-08-12T01:23:20;22.86;84.72
80743;SHT31;70142;50.894;6.052;2023-08-12T01:25:53;22.78;84.55
80743;SHT31;70142;50.894;6.052;2023-08-12T01:28:27;22.81;84.49
80743;SHT31;70142;50.894;6.052;2023-08-12T01:31:08;22.72;84.53
80743;SHT31;70142;50.894;6.052;2023-08-12T01:33:51;22.87;84.32
80743;SHT31;70142;50.894;6.052;2023-08-12T01:36:29;22.72;84.68
80743;SHT31;70142;50.894;6.052;2023-08-12T01:39:10;22.70;84.73
80743;SHT31;70142;50.894;6.052;2023-08-12T01:41:44;22.67;84.64
80743;SHT31;70142;50.894;6.052;2023-08-12T01:44:18;22.78;84.14
80743;SHT31;70142;50.894;6.052;2023-08-12T01:46:52;22.71;84.42
80743;SHT31;70142;50.894;6.052;2023-08-12T01:49:25;22.71;84.59
80743;SHT31;70142;50.894;6.052;2023-08-12T01:51:58;22.67;84.72
80743;SHT31;70142;50.894;6.052;2023-08-12T01:54:33;22.77;83.95
80743;SHT31;70142;50.894;6.052;2023-08-12T01:57:06;22.71;84.63
80743;SHT31;70142;50.894;6.052;2023-08-12T01:59:43;22.77;84.02
80743;SHT31;70142;50.894;6.052;2023-08-12T02:02:16;22.68;84.27
80743;SHT31;70142;50.894;6.052;2023-08-12T02:04:49;22.67;84.23
80743;SHT31;70142;50.894;6.052;2023-08-12T02:07:23;22.65;84.45
80743;SHT31;70142;50.894;6.052;2023-08-12T02:09:57;22.63;84.41
80743;SHT31;70142;50.894;6.052;2023-08-12T02:12:31;22.61;84.37
80743;SHT31;70142;50.894;6.052;2023-08-12T02:15:05;22.71;83.91
80743;SHT31;70142;50.894;6.052;2023-08-12T02:17:38;22.68;84.07
80743;SHT31;70142;50.894;6.052;2023-08-12T02:20:12;22.59;84.01
80743;SHT31;70142;50.894;6.052;2023-08-12T02:22:48;22.67;84.21
80743;SHT31;70142;50.894;6.052;2023-08-12T02:25:22;22.65;84.37
80743;SHT31;70142;50.894;6.052;2023-08-12T02:27:55;22.59;84.47
80743;SHT31;70142;50.894;6.052;2023-08-12T02:30:29;22.65;84.21
80743;SHT31;70142;50.894;6.052;2023-08-12T02:33:03;22.60;83.98
80743;SHT31;70142;50.894;6.052;2023-08-12T02:35:36;22.56;84.34
80743;SHT31;70142;50.894;6.052;2023-08-12T02:38:09;22.65;83.88
80743;SHT31;70142;50.894;6.052;2023-08-12T02:40:47;22.68;83.59
80743;SHT31;70142;50.894;6.052;2023-08-12T02:43:21;22.64;83.56
80743;SHT31;70142;50.894;6.052;2023-08-12T02:45:54;22.61;83.61
80743;SHT31;70142;50.894;6.052;2023-08-12T02:48:27;22.60;83.94
80743;SHT31;70142;50.894;6.052;2023-08-12T02:51:01;22.50;83.92
80743;SHT31;70142;50.894;6.052;2023-08-12T02:53:34;22.44;84.45
80743;SHT31;70142;50.894;6.052;2023-08-12T02:56:09;22.41;84.46
80743;SHT31;70142;50.894;6.052;2023-08-12T02:58:42;22.40;84.38
80743;SHT31;70142;50.894;6.052;2023-08-12T03:01:15;22.35;84.50
80743;SHT31;70142;50.894;6.052;2023-08-12T03:03:49;22.33;84.63
80743;SHT31;70142;50.894;6.052;2023-08-12T03:06:22;22.36;84.41
80743;SHT31;70142;50.894;6.052;2023-08-12T03:08:55;22.23;84.76
80743;SHT31;70142;50.894;6.052;2023-08-12T03:11:30;22.09;85.09
80743;SHT31;70142;50.894;6.052;2023-08-12T03:14:05;22.12;85.02
80743;SHT31;70142;50.894;6.052;2023-08-12T03:16:39;22.13;85.04
80743;SHT31;70142;50.894;6.052;2023-08-12T03:19:12;22.14;85.03
80743;SHT31;70142;50.894;6.052;2023-08-12T03:21:46;22.13;85.07
80743;SHT31;70142;50.894;6.052;2023-08-12T03:24:19;22.17;85.19
80743;SHT31;70142;50.894;6.052;2023-08-12T03:26:54;22.20;85.23
80743;SHT31;70142;50.894;6.052;2023-08-12T03:29:27;22.33;84.53
80743;SHT31;70142;50.894;6.052;2023-08-12T03:32:02;22.43;84.14
80743;SHT31;70142;50.894;6.052;2023-08-12T03:34:36;22.37;84.25
80743;SHT31;70142;50.894;6.052;2023-08-12T03:37:10;22.26;84.78
80743;SHT31;70142;50.894;6.052;2023-08-12T03:39:44;22.26;84.73
80743;SHT31;70142;50.894;6.052;2023-08-12T03:42:19;22.33;84.25
80743;SHT31;70142;50.894;6.052;2023-08-12T03:44:53;22.26;84.74
80743;SHT31;70142;50.894;6.052;2023-08-12T03:47:26;22.20;84.92
80743;SHT31;70142;50.894;6.052;2023-08-12T03:49:59;22.24;84.86
80743;SHT31;70142;50.894;6.052;2023-08-12T03:52:35;22.24;84.77
80743;SHT31;70142;50.894;6.052;2023-08-12T03:55:09;22.33;84.45
80743;SHT31;70142;50.894;6.052;2023-08-12T03:57:43;22.27;84.54
80743;SHT31;70142;50.894;6.052;2023-08-12T04:00:17;22.26;84.80
80743;SHT31;70142;50.894;6.052;2023-08-12T04:02:50;22.19;84.65
80743;SHT31;70142;50.894;6.052;2023-08-12T04:05:24;22.17;85.07
80743;SHT31;70142;50.894;6.052;2023-08-12T04:07:57;22.14;84.83
80743;SHT31;70142;50.894;6.052;2023-08-12T04:10:30;22.10;85.12
80743;SHT31;70142;50.894;6.052;2023-08-12T04:13:05;22.20;84.68
80743;SHT31;70142;50.894;6.052;2023-08-12T04:15:38;22.21;84.58
80743;SHT31;70142;50.894;6.052;2023-08-12T04:18:12;22.17;84.62
80743;SHT31;70142;50.894;6.052;2023-08-12T04:20:45;22.16;84.55
80743;SHT31;70142;50.894;6.052;2023-08-12T04:23:20;22.16;84.76
80743;SHT31;70142;50.894;6.052;2023-08-12T04:25:53;22.14;85.06
80743;SHT31;70142;50.894;6.052;2023-08-12T04:28:31;22.16;84.68
80743;SHT31;70142;50.894;6.052;2023-08-12T04:31:06;22.29;83.99
80743;SHT31;70142;50.894;6.052;2023-08-12T04:33:42;22.21;84.46
80743;SHT31;70142;50.894;6.052;2023-08-12T04:36:15;22.26;84.62
80743;SHT31;70142;50.894;6.052;2023-08-12T04:38:49;22.36;84.43
80743;SHT31;70142;50.894;6.052;2023-08-12T04:41:22;22.43;84.07
80743;SHT31;70142;50.894;6.052;2023-08-12T04:44:01;22.51;83.53
80743;SHT31;70142;50.894;6.052;2023-08-12T04:46:37;22.47;83.90
80743;SHT31;70142;50.894;6.052;2023-08-12T04:49:10;22.49;83.68
80743;SHT31;70142;50.894;6.052;2023-08-12T04:51:45;22.49;83.48
80743;SHT31;70142;50.894;6.052;2023-08-12T04:54:19;22.43;83.56
80743;SHT31;70142;50.894;6.052;2023-08-12T04:56:53;22.36;83.68
80743;SHT31;70142;50.894;6.052;2023-08-12T04:59:29;22.29;83.85
80743;SHT31;70142;50.894;6.052;2023-08-12T05:02:02;22.24;83.47
80743;SHT31;70142;50.894;6.052;2023-08-12T05:04:38;22.05;83.36
80743;SHT31;70142;50.894;6.052;2023-08-12T05:07:13;21.83;83.85
80743;SHT31;70142;50.894;6.052;2023-08-12T05:09:48;21.69;83.80
80743;SHT31;70142;50.894;6.052;2023-08-12T05:12:23;21.69;83.75
80743;SHT31;70142;50.894;6.052;2023-08-12T05:14:57;21.44;84.26
80743;SHT31;70142;50.894;6.052;2023-08-12T05:17:31;21.37;84.20
80743;SHT31;70142;50.894;6.052;2023-08-12T05:20:06;21.25;84.01
80743;SHT31;70142;50.894;6.052;2023-08-12T05:22:39;21.08;84.86
80743;SHT31;70142;50.894;6.052;2023-08-12T05:25:15;20.97;85.34
80743;SHT31;70142;50.894;6.052;2023-08-12T05:27:49;20.84;85.62
80743;SHT31;70142;50.894;6.052;2023-08-12T05:30:24;20.76;86.21
80743;SHT31;70142;50.894;6.052;2023-08-12T05:32:57;20.81;85.49
80743;SHT31;70142;50.894;6.052;2023-08-12T05:35:33;20.79;85.58
80743;SHT31;70142;50.894;6.052;2023-08-12T05:38:06;20.74;86.27
80743;SHT31;70142;50.894;6.052;2023-08-12T05:40:39;20.73;85.92
80743;SHT31;70142;50.894;6.052;2023-08-12T05:43:12;20.67;86.03
80743;SHT31;70142;50.894;6.052;2023-08-12T05:45:48;20.62;86.32
80743;SHT31;70142;50.894;6.052;2023-08-12T05:48:21;20.56;86.74
80743;SHT31;70142;50.894;6.052;2023-08-12T05:50:54;20.64;86.22
80743;SHT31;70142;50.894;6.052;2023-08-12T05:53:27;20.62;86.29
80743;SHT31;70142;50.894;6.052;2023-08-12T05:56:00;20.64;86.59
80743;SHT31;70142;50.894;6.052;2023-08-12T05:58:36;20.66;86.29
80743;SHT31;70142;50.894;6.052;2023-08-12T06:01:11;20.73;86.37
80743;SHT31;70142;50.894;6.052;2023-08-12T06:03:44;20.73;86.29
80743;SHT31;70142;50.894;6.052;2023-08-12T06:06:18;20.67;85.98
80743;SHT31;70142;50.894;6.052;2023-08-12T06:08:51;20.67;86.51
80743;SHT31;70142;50.894;6.052;2023-08-12T06:11:24;20.64;86.02
80743;SHT31;70142;50.894;6.052;2023-08-12T06:13:57;20.66;86.74
80743;SHT31;70142;50.894;6.052;2023-08-12T06:16:32;20.69;86.41
80743;SHT31;70142;50.894;6.052;2023-08-12T06:19:05;20.76;86.43
80743;SHT31;70142;50.894;6.052;2023-08-12T06:21:39;20.79;86.17
80743;SHT31;70142;50.894;6.052;2023-08-12T06:24:12;20.85;85.96
80743;SHT31;70142;50.894;6.052;2023-08-12T06:26:45;20.93;85.89
80743;SHT31;70142;50.894;6.052;2023-08-12T06:29:19;20.88;86.17
80743;SHT31;70142;50.894;6.052;2023-08-12T06:31:53;21.04;85.33
80743;SHT31;70142;50.894;6.052;2023-08-12T06:34:27;20.94;85.89
80743;SHT31;70142;50.894;6.052;2023-08-12T06:37:00;20.88;85.66
80743;SHT31;70142;50.894;6.052;2023-08-12T06:39:34;20.94;85.71
80743;SHT31;70142;50.894;6.052;2023-08-12T06:42:07;20.97;85.80
80743;SHT31;70142;50.894;6.052;2023-08-12T06:44:41;20.91;85.74
80743;SHT31;70142;50.894;6.052;2023-08-12T06:47:17;20.91;85.87
80743;SHT31;70142;50.894;6.052;2023-08-12T06:49:51;21.01;85.53
80743;SHT31;70142;50.894;6.052;2023-08-12T06:52:24;21.03;86.15
80743;SHT31;70142;50.894;6.052;2023-08-12T06:54:57;21.05;85.31
80743;SHT31;70142;50.894;6.052;2023-08-12T06:57:30;21.15;85.57
80743;SHT31;70142;50.894;6.052;2023-08-12T07:00:05;21.24;85.35
80743;SHT31;70142;50.894;6.052;2023-08-12T07:02:39;21.24;84.87
80743;SHT31;70142;50.894;6.052;2023-08-12T07:05:14;21.23;84.28
80743;SHT31;70142;50.894;6.052;2023-08-12T07:07:48;21.25;84.90
80743;SHT31;70142;50.894;6.052;2023-08-12T07:10:21;21.20;84.77
80743;SHT31;70142;50.894;6.052;2023-08-12T07:12:55;21.31;84.83
80743;SHT31;70142;50.894;6.052;2023-08-12T07:15:28;21.31;84.77
80743;SHT31;70142;50.894;6.052;2023-08-12T07:18:03;21.32;85.12
80743;SHT31;70142;50.894;6.052;2023-08-12T07:20:37;21.37;84.92
80743;SHT31;70142;50.894;6.052;2023-08-12T07:23:11;21.55;84.92
80743;SHT31;70142;50.894;6.052;2023-08-12T07:25:46;21.62;84.58
80743;SHT31;70142;50.894;6.052;2023-08-12T07:28:19;21.63;84.01
80743;SHT31;70142;50.894;6.052;2023-08-12T07:30:52;21.49;84.14
80743;SHT31;70142;50.894;6.052;2023-08-12T07:33:27;21.49;84.35
80743;SHT31;70142;50.894;6.052;2023-08-12T07:36:01;21.42;85.24
80743;SHT31;70142;50.894;6.052;2023-08-12T07:38:34;21.46;85.20
80743;SHT31;70142;50.894;6.052;2023-08-12T07:41:08;21.37;85.53
80743;SHT31;70142;50.894;6.052;2023-08-12T07:43:41;21.38;85.05
80743;SHT31;70142;50.894;6.052;2023-08-12T07:46:14;21.31;85.49
80743;SHT31;70142;50.894;6.052;2023-08-12T07:48:49;21.35;85.79
80743;SHT31;70142;50.894;6.052;2023-08-12T07:51:22;21.44;85.62
80743;SHT31;70142;50.894;6.052;2023-08-12T07:53:56;21.45;85.34
80743;SHT31;70142;50.894;6.052;2023-08-12T07:56:29;21.32;85.24
80743;SHT31;70142;50.894;6.052;2023-08-12T07:59:02;21.35;86.17
80743;SHT31;70142;50.894;6.052;2023-08-12T08:01:36;21.42;85.61
80743;SHT31;70142;50.894;6.052;2023-08-12T08:04:11;21.32;85.92
80743;SHT31;70142;50.894;6.052;2023-08-12T08:06:44;21.34;85.71
80743;SHT31;70142;50.894;6.052;2023-08-12T08:09:22;21.37;85.35
80743;SHT31;70142;50.894;6.052;2023-08-12T08:11:55;21.42;85.56
80743;SHT31;70142;50.894;6.052;2023-08-12T08:14:28;21.46;84.68
80743;SHT31;70142;50.894;6.052;2023-08-12T08:17:01;21.59;85.55
80743;SHT31;70142;50.894;6.052;2023-08-12T08:19:36;21.78;84.53
80743;SHT31;70142;50.894;6.052;2023-08-12T08:22:10;22.03;84.46
80743;SHT31;70142;50.894;6.052;2023-08-12T08:24:43;22.37;83.71
80743;SHT31;70142;50.894;6.052;2023-08-12T08:27:17;22.40;82.84
80743;SHT31;70142;50.894;6.052;2023-08-12T08:29:52;22.40;82.59
80743;SHT31;70142;50.894;6.052;2023-08-12T08:32:25;22.56;82.85
80743;SHT31;70142;50.894;6.052;2023-08-12T08:35:00;22.75;81.45
80743;SHT31;70142;50.894;6.052;2023-08-12T08:37:33;23.05;80.73
80743;SHT31;70142;50.894;6.052;2023-08-12T08:40:08;23.02;80.09
80743;SHT31;70142;50.894;6.052;2023-08-12T08:42:43;23.00;81.55
80743;SHT31;70142;50.894;6.052;2023-08-12T08:45:17;22.86;82.00
80743;SHT31;70142;50.894;6.052;2023-08-12T08:47:51;22.83;82.13
80743;SHT31;70142;50.894;6.052;2023-08-12T08:50:26;22.90;81.40
80743;SHT31;70142;50.894;6.052;2023-08-12T08:53:01;23.29;80.72
80743;SHT31;70142;50.894;6.052;2023-08-12T08:55:35;23.73;78.12
80743;SHT31;70142;50.894;6.052;2023-08-12T08:58:08;23.49;79.19
80743;SHT31;70142;50.894;6.052;2023-08-12T09:00:42;23.69;78.73
80743;SHT31;70142;50.894;6.052;2023-08-12T09:03:16;23.76;77.55
80743;SHT31;70142;50.894;6.052;2023-08-12T09:05:53;23.82;77.83
80743;SHT31;70142;50.894;6.052;2023-08-12T09:08:29;24.26;76.13
80743;SHT31;70142;50.894;6.052;2023-08-12T09:11:07;24.56;76.23
80743;SHT31;70142;50.894;6.052;2023-08-12T09:13:40;24.46;74.59
80743;SHT31;70142;50.894;6.052;2023-08-12T09:16:14;24.33;75.83
80743;SHT31;70142;50.894;6.052;2023-08-12T09:18:47;24.79;75.10
80743;SHT31;70142;50.894;6.052;2023-08-12T09:21:28;24.75;74.32
80743;SHT31;70142;50.894;6.052;2023-08-12T09:24:03;24.36;75.03
80743;SHT31;70142;50.894;6.052;2023-08-12T09:26:37;24.28;75.00
80743;SHT31;70142;50.894;6.052;2023-08-12T09:29:10;24.27;76.07
80743;SHT31;70142;50.894;6.052;2023-08-12T09:31:44;24.58;74.69
80743;SHT31;70142;50.894;6.052;2023-08-12T09:34:17;24.74;73.81
80743;SHT31;70142;50.894;6.052;2023-08-12T09:36:52;24.46;74.49
80743;SHT31;70142;50.894;6.052;2023-08-12T09:39:26;24.27;75.11
80743;SHT31;70142;50.894;6.052;2023-08-12T09:41:59;24.03;75.79
80743;SHT31;70142;50.894;6.052;2023-08-12T09:44:34;23.77;76.09
80743;SHT31;70142;50.894;6.052;2023-08-12T09:47:08;23.52;77.31
80743;SHT31;70142;50.894;6.052;2023-08-12T09:49:41;23.56;78.34
80743;SHT31;70142;50.894;6.052;2023-08-12T09:52:16;23.29;78.70
80743;SHT31;70142;50.894;6.052;2023-08-12T09:54:55;22.98;79.34
80743;SHT31;70142;50.894;6.052;2023-08-12T09:57:33;22.77;80.89
80743;SHT31;70142;50.894;6.052;2023-08-12T10:00:11;22.63;81.57
80743;SHT31;70142;50.894;6.052;2023-08-12T10:02:50;22.35;82.92
80743;SHT31;70142;50.894;6.052;2023-08-12T10:05:27;22.05;85.21
80743;SHT31;70142;50.894;6.052;2023-08-12T10:08:03;22.05;85.51
80743;SHT31;70142;50.894;6.052;2023-08-12T10:10:38;22.05;85.50
80743;SHT31;70142;50.894;6.052;2023-08-12T10:13:13;22.23;84.91
80743;SHT31;70142;50.894;6.052;2023-08-12T10:15:46;22.24;84.52
80743;SHT31;70142;50.894;6.052;2023-08-12T10:18:22;22.32;85.18
80743;SHT31;70142;50.894;6.052;2023-08-12T10:20:57;22.39;84.57
80743;SHT31;70142;50.894;6.052;2023-08-12T10:23:32;22.50;84.31
80743;SHT31;70142;50.894;6.052;2023-08-12T10:26:06;22.59;83.47
80743;SHT31;70142;50.894;6.052;2023-08-12T10:28:40;22.49;84.13
80743;SHT31;70142;50.894;6.052;2023-08-12T10:31:13;22.49;84.42
80743;SHT31;70142;50.894;6.052;2023-08-12T10:33:47;22.67;85.04
80743;SHT31;70142;50.894;6.052;2023-08-12T10:36:22;22.60;83.64
80743;SHT31;70142;50.894;6.052;2023-08-12T10:38:57;22.78;83.98
80743;SHT31;70142;50.894;6.052;2023-08-12T10:41:36;23.15;81.96
80743;SHT31;70142;50.894;6.052;2023-08-12T10:44:09;23.39;82.42
80743;SHT31;70142;50.894;6.052;2023-08-12T10:46:50;23.48;80.45
80743;SHT31;70142;50.894;6.052;2023-08-12T10:49:23;23.58;82.08
80743;SHT31;70142;50.894;6.052;2023-08-12T10:51:57;24.03;79.77
80743;SHT31;70142;50.894;6.052;2023-08-12T10:54:33;24.54;79.60
80743;SHT31;70142;50.894;6.052;2023-08-12T10:57:10;24.63;77.83
80743;SHT31;70142;50.894;6.052;2023-08-12T10:59:52;25.01;77.38
80743;SHT31;70142;50.894;6.052;2023-08-12T11:02:28;24.50;78.41
80743;SHT31;70142;50.894;6.052;2023-08-12T11:05:03;24.00;79.25
80743;SHT31;70142;50.894;6.052;2023-08-12T11:07:39;23.55;81.21
80743;SHT31;70142;50.894;6.052;2023-08-12T11:10:16;23.76;80.23
80743;SHT31;70142;50.894;6.052;2023-08-12T11:12:54;23.93;80.21
80743;SHT31;70142;50.894;6.052;2023-08-12T11:15:32;24.18;78.40
80743;SHT31;70142;50.894;6.052;2023-08-12T11:18:08;24.46;78.35
80743;SHT31;70142;50.894;6.052;2023-08-12T11:20:42;24.60;78.45
80743;SHT31;70142;50.894;6.052;2023-08-12T11:23:17;24.51;76.88
80743;SHT31;70142;50.894;6.052;2023-08-12T11:25:53;24.27;77.66
80743;SHT31;70142;50.894;6.052;2023-08-12T11:28:27;24.21;79.01
80743;SHT31;70142;50.894;6.052;2023-08-12T11:31:00;24.43;77.20
80743;SHT31;70142;50.894;6.052;2023-08-12T11:33:34;24.21;78.13
80743;SHT31;70142;50.894;6.052;2023-08-12T11:36:07;23.93;78.78
80743;SHT31;70142;50.894;6.052;2023-08-12T11:38:41;23.21;80.31
80743;SHT31;70142;50.894;6.052;2023-08-12T11:41:18;22.78;82.85
80743;SHT31;70142;50.894;6.052;2023-08-12T11:43:51;22.59;82.78
80743;SHT31;70142;50.894;6.052;2023-08-12T11:46:25;22.17;84.08
80743;SHT31;70142;50.894;6.052;2023-08-12T11:48:58;21.85;84.88
80743;SHT31;70142;50.894;6.052;2023-08-12T11:51:32;21.63;86.01
80743;SHT31;70142;50.894;6.052;2023-08-12T11:54:06;21.49;85.96
80743;SHT31;70142;50.894;6.052;2023-08-12T11:56:42;21.78;85.36
80743;SHT31;70142;50.894;6.052;2023-08-12T11:59:15;21.82;85.94
80743;SHT31;70142;50.894;6.052;2023-08-12T12:01:49;21.54;86.24
80743;SHT31;70142;50.894;6.052;2023-08-12T12:04:22;22.02;85.24
80743;SHT31;70142;50.894;6.052;2023-08-12T12:06:57;22.60;83.90
80743;SHT31;70142;50.894;6.052;2023-08-12T12:09:32;22.46;83.87
80743;SHT31;70142;50.894;6.052;2023-08-12T12:12:10;22.07;85.14
80743;SHT31;70142;50.894;6.052;2023-08-12T12:14:46;21.51;85.04
80743;SHT31;70142;50.894;6.052;2023-08-12T12:17:21;21.14;85.85
80743;SHT31;70142;50.894;6.052;2023-08-12T12:19:55;21.07;85.45
80743;SHT31;70142;50.894;6.052;2023-08-12T12:22:30;21.14;85.82
80743;SHT31;70142;50.894;6.052;2023-08-12T12:25:09;20.69;85.44
80743;SHT31;70142;50.894;6.052;2023-08-12T12:27:45;20.70;84.32
80743;SHT31;70142;50.894;6.052;2023-08-12T12:30:19;20.94;83.28
80743;SHT31;70142;50.894;6.052;2023-08-12T12:32:52;21.34;82.77
80743;SHT31;70142;50.894;6.052;2023-08-12T12:35:26;21.61;82.41
80743;SHT31;70142;50.894;6.052;2023-08-12T12:37:59;21.68;80.18
80743;SHT31;70142;50.894;6.052;2023-08-12T12:40:32;21.98;80.88
80743;SHT31;70142;50.894;6.052;2023-08-12T12:43:07;22.72;79.26
80743;SHT31;70142;50.894;6.052;2023-08-12T12:45:40;22.86;77.83
80743;SHT31;70142;50.894;6.052;2023-08-12T12:48:13;22.83;77.39
80743;SHT31;70142;50.894;6.052;2023-08-12T12:50:47;22.94;78.39
80743;SHT31;70142;50.894;6.052;2023-08-12T12:53:22;23.14;78.28
80743;SHT31;70142;50.894;6.052;2023-08-12T12:55:55;23.80;77.68
80743;SHT31;70142;50.894;6.052;2023-08-12T12:58:32;23.96;74.43
80743;SHT31;70142;50.894;6.052;2023-08-12T13:01:06;23.96;74.86
80743;SHT31;70142;50.894;6.052;2023-08-12T13:03:39;24.46;73.39
80743;SHT31;70142;50.894;6.052;2023-08-12T13:06:12;24.36;75.03
80743;SHT31;70142;50.894;6.052;2023-08-12T13:08:46;23.92;72.82
80743;SHT31;70142;50.894;6.052;2023-08-12T13:11:20;23.53;74.82
80743;SHT31;70142;50.894;6.052;2023-08-12T13:13:55;23.96;75.74
80743;SHT31;70142;50.894;6.052;2023-08-12T13:16:28;24.06;73.21
80743;SHT31;70142;50.894;6.052;2023-08-12T13:19:02;23.76;75.79
80743;SHT31;70142;50.894;6.052;2023-08-12T13:21:35;23.86;73.66
80743;SHT31;70142;50.894;6.052;2023-08-12T13:24:09;23.82;75.41
80743;SHT31;70142;50.894;6.052;2023-08-12T13:26:42;23.67;73.54
80743;SHT31;70142;50.894;6.052;2023-08-12T13:29:16;23.82;74.06
80743;SHT31;70142;50.894;6.052;2023-08-12T13:31:50;24.40;74.15
80743;SHT31;70142;50.894;6.052;2023-08-12T13:34:23;24.41;72.41
80743;SHT31;70142;50.894;6.052;2023-08-12T13:36:56;24.18;73.50
80743;SHT31;70142;50.894;6.052;2023-08-12T13:39:29;24.23;72.79
80743;SHT31;70142;50.894;6.052;2023-08-12T13:42:03;24.24;73.09
80743;SHT31;70142;50.894;6.052;2023-08-12T13:44:37;24.48;71.77
80743;SHT31;70142;50.894;6.052;2023-08-12T13:47:10;23.96;73.09
80743;SHT31;70142;50.894;6.052;2023-08-12T13:49:44;24.13;72.15
80743;SHT31;70142;50.894;6.052;2023-08-12T13:52:17;25.04;69.62
80743;SHT31;70142;50.894;6.052;2023-08-12T13:54:50;26.16;68.04
80743;SHT31;70142;50.894;6.052;2023-08-12T13:57:23;26.44;65.86
80743;SHT31;70142;50.894;6.052;2023-08-12T13:59:58;26.07;63.51
80743;SHT31;70142;50.894;6.052;2023-08-12T14:02:32;26.17;64.37
80743;SHT31;70142;50.894;6.052;2023-08-12T14:05:06;26.47;63.54
80743;SHT31;70142;50.894;6.052;2023-08-12T14:07:40;26.48;62.87
80743;SHT31;70142;50.894;6.052;2023-08-12T14:10:13;26.86;63.79
80743;SHT31;70142;50.894;6.052;2023-08-12T14:12:47;26.85;62.70
80743;SHT31;70142;50.894;6.052;2023-08-12T14:15:25;25.82;67.10
80743;SHT31;70142;50.894;6.052;2023-08-12T14:17:58;25.67;64.27
80743;SHT31;70142;50.894;6.052;2023-08-12T14:20:32;26.03;64.99
80743;SHT31;70142;50.894;6.052;2023-08-12T14:23:05;26.47;61.06
80743;SHT31;70142;50.894;6.052;2023-08-12T14:25:40;25.94;62.76
80743;SHT31;70142;50.894;6.052;2023-08-12T14:28:13;25.67;63.48
80743;SHT31;70142;50.894;6.052;2023-08-12T14:30:48;25.39;63.94
80743;SHT31;70142;50.894;6.052;2023-08-12T14:33:21;25.11;64.44
80743;SHT31;70142;50.894;6.052;2023-08-12T14:35:57;24.74;65.96
80743;SHT31;70142;50.894;6.052;2023-08-12T14:38:30;25.39;63.14
80743;SHT31;70142;50.894;6.052;2023-08-12T14:41:04;26.03;61.69
80743;SHT31;70142;50.894;6.052;2023-08-12T14:43:38;26.08;61.17
80743;SHT31;70142;50.894;6.052;2023-08-12T14:46:13;26.05;62.62
80743;SHT31;70142;50.894;6.052;2023-08-12T14:48:46;25.98;61.82
80743;SHT31;70142;50.894;6.052;2023-08-12T14:51:19;26.14;60.31
80743;SHT31;70142;50.894;6.052;2023-08-12T14:53:56;26.72;59.20
80743;SHT31;70142;50.894;6.052;2023-08-12T14:56:29;26.52;57.12
80743;SHT31;70142;50.894;6.052;2023-08-12T14:59:02;25.96;60.47
80743;SHT31;70142;50.894;6.052;2023-08-12T15:01:37;25.86;60.56
80743;SHT31;70142;50.894;6.052;2023-08-12T15:04:10;25.33;61.16
80743;SHT31;70142;50.894;6.052;2023-08-12T15:06:44;24.84;61.44
80743;SHT31;70142;50.894;6.052;2023-08-12T15:09:17;24.74;61.44
80743;SHT31;70142;50.894;6.052;2023-08-12T15:11:50;24.87;61.33
80743;SHT31;70142;50.894;6.052;2023-08-12T15:14:24;24.74;61.15
80743;SHT31;70142;50.894;6.052;2023-08-12T15:16:58;24.67;59.59
80743;SHT31;70142;50.894;6.052;2023-08-12T15:19:32;25.02;59.28
80743;SHT31;70142;50.894;6.052;2023-08-12T15:22:05;25.38;57.40
80743;SHT31;70142;50.894;6.052;2023-08-12T15:24:38;25.56;57.81
80743;SHT31;70142;50.894;6.052;2023-08-12T15:27:14;25.52;57.76
80743;SHT31;70142;50.894;6.052;2023-08-12T15:29:47;26.33;55.97
80743;SHT31;70142;50.894;6.052;2023-08-12T15:32:22;26.62;53.99
80743;SHT31;70142;50.894;6.052;2023-08-12T15:34:55;25.89;56.21
80743;SHT31;70142;50.894;6.052;2023-08-12T15:37:28;25.83;56.93
80743;SHT31;70142;50.894;6.052;2023-08-12T15:40:02;25.59;55.97
80743;SHT31;70142;50.894;6.052;2023-08-12T15:42:35;25.07;56.93
80743;SHT31;70142;50.894;6.052;2023-08-12T15:45:09;26.05;56.35
80743;SHT31;70142;50.894;6.052;2023-08-12T15:47:45;26.75;57.35
80743;SHT31;70142;50.894;6.052;2023-08-12T15:50:18;26.52;56.33
80743;SHT31;70142;50.894;6.052;2023-08-12T15:52:52;26.00;56.00
80743;SHT31;70142;50.894;6.052;2023-08-12T15:55:25;26.27;55.89
80743;SHT31;70142;50.894;6.052;2023-08-12T15:57:58;26.44;54.57
80743;SHT31;70142;50.894;6.052;2023-08-12T16:00:31;25.90;55.68
80743;SHT31;70142;50.894;6.052;2023-08-12T16:03:06;25.21;56.76
80743;SHT31;70142;50.894;6.052;2023-08-12T16:05:41;25.47;56.48
80743;SHT31;70142;50.894;6.052;2023-08-12T16:08:16;26.25;52.90
80743;SHT31;70142;50.894;6.052;2023-08-12T16:10:49;26.34;53.93
80743;SHT31;70142;50.894;6.052;2023-08-12T16:13:22;26.47;53.31